createdAt,value
2022-12-13T06:31:12.081Z,-6.90
2022-12-13T06:33:39.296Z,-6.90
2022-12-13T06:36:06.914Z,-7.00
2022-12-13T06:38:34.349Z,-7.00
2022-12-13T06:41:12.855Z,-7.00
2022-12-13T06:43:48.568Z,-6.90
2022-12-13T06:46:16.371Z,-7.00
2022-12-13T06:48:43.788Z,-6.90
2022-12-13T06:51:11.111Z,-7.10
2022-12-13T06:53:40.217Z,-7.60
2022-12-13T06:56:10.870Z,-7.00
2022-12-13T06:58:38.604Z,-7.10
2022-12-13T07:01:14.974Z,-6.90
2022-12-13T07:03:51.697Z,-7.00
2022-12-13T07:06:20.803Z,-5.90
2022-12-13T07:08:50.589Z,-7.00
2022-12-13T07:11:21.079Z,-7.00
2022-12-13T07:13:48.809Z,-7.00
2022-12-13T07:16:16.962Z,-7.00
2022-12-13T07:18:44.864Z,-7.00
2022-12-13T07:21:22.102Z,-6.90
2022-12-13T07:23:54.729Z,-6.90
2022-12-13T07:26:24.295Z,-6.90
2022-12-13T07:28:55.299Z,-6.90
2022-12-13T07:31:24.438Z,-6.90
2022-12-13T07:33:52.681Z,-6.80
2022-12-13T07:36:22.552Z,-6.70
2022-12-13T07:38:55.076Z,-6.70
2022-12-13T07:41:24.267Z,-6.60
2022-12-13T07:43:55.100Z,-6.60
2022-12-13T07:46:32.175Z,-6.70
2022-12-13T07:49:03.085Z,-6.50
2022-12-13T07:51:30.587Z,-6.40
2022-12-13T07:53:58.086Z,-6.40
2022-12-13T07:56:25.544Z,-6.30
2022-12-13T07:58:52.857Z,-5.90
2022-12-13T08:01:20.180Z,-6.20
2022-12-13T08:03:48.645Z,-6.20
2022-12-13T08:06:17.129Z,-6.10
2022-12-13T08:08:44.809Z,-5.90
2022-12-13T08:11:15.385Z,-6.10
2022-12-13T08:13:45.349Z,-6.00
2022-12-13T08:16:27.533Z,-5.60
2022-12-13T08:19:02.333Z,-6.00
2022-12-13T08:21:54.037Z,-5.70
2022-12-13T08:24:25.351Z,-5.60
2022-12-13T08:26:52.635Z,-5.50
2022-12-13T08:29:32.057Z,-5.30
2022-12-13T08:32:05.385Z,-5.30
2022-12-13T08:34:32.789Z,-5.10
2022-12-13T08:37:02.111Z,-4.90
2022-12-13T08:39:34.222Z,-4.90
2022-12-13T08:42:17.211Z,-4.70
2022-12-13T08:44:47.678Z,-4.60
2022-12-13T08:47:23.751Z,-4.60
2022-12-13T08:49:54.076Z,-4.40
2022-12-13T08:52:23.928Z,-4.50
2022-12-13T08:54:51.294Z,-4.20
2022-12-13T08:57:18.754Z,-4.20
2022-12-13T08:59:57.306Z,-3.90
2022-12-13T09:04:53.180Z,-3.40
2022-12-13T09:07:20.543Z,-2.70
2022-12-13T09:09:54.980Z,-2.90
2022-12-13T09:12:30.364Z,-2.70
2022-12-13T09:15:01.338Z,-2.70
2022-12-13T09:17:36.943Z,-2.60
2022-12-13T09:20:10.291Z,-2.80
2022-12-13T09:23:02.073Z,-2.90
2022-12-13T09:25:37.256Z,-2.40
2022-12-13T09:28:07.925Z,-1.90
2022-12-13T09:30:38.027Z,-1.60
2022-12-13T09:33:28.617Z,-1.50
2022-12-13T09:35:53.901Z,-1.70
2022-12-13T09:38:21.220Z,-2.50
2022-12-13T09:40:50.304Z,-1.90
2022-12-13T09:43:42.712Z,-1.60
2022-12-13T09:46:34.950Z,-2.20
2022-12-13T09:49:35.348Z,-2.40
2022-12-13T09:52:11.026Z,-2.40
2022-12-13T09:54:48.149Z,-2.60
2022-12-13T09:57:33.843Z,-2.10
2022-12-13T10:00:07.748Z,-1.90
2022-12-13T10:02:45.058Z,-2.00
2022-12-13T10:07:55.945Z,-2.20
2022-12-13T10:10:23.690Z,-2.10
2022-12-13T10:12:58.901Z,-1.90
2022-12-13T10:15:28.219Z,-1.90
2022-12-13T10:17:59.105Z,-2.30
2022-12-13T10:20:29.136Z,-2.40
2022-12-13T10:23:31.319Z,-1.50
2022-12-13T10:25:51.092Z,-2.60
2022-12-13T10:28:25.075Z,-2.30
2022-12-13T10:30:52.881Z,-2.00
2022-12-13T10:33:28.843Z,-2.00
2022-12-13T10:36:11.986Z,0.30
2022-12-13T10:38:43.290Z,-1.80
2022-12-13T10:41:42.396Z,-1.80
2022-12-13T10:55:33.952Z,-1.70
2022-12-13T10:58:07.699Z,-1.90
2022-12-13T11:00:54.463Z,-1.80
2022-12-13T11:03:32.988Z,-1.90
2022-12-13T11:06:06.602Z,-2.10
2022-12-13T11:08:37.570Z,-1.50
2022-12-13T11:11:09.707Z,-1.70
2022-12-13T11:13:55.234Z,-1.90
2022-12-13T11:16:44.038Z,-2.00
2022-12-13T11:19:25.296Z,-1.50
2022-12-13T11:21:56.637Z,-1.80
2022-12-13T11:24:30.952Z,-2.00
2022-12-13T11:27:10.673Z,-1.90
2022-12-13T11:33:04.280Z,-2.10
2022-12-13T11:36:01.361Z,-1.80
2022-12-13T11:38:49.193Z,-1.70
2022-12-13T11:41:32.472Z,-1.70
2022-12-13T11:44:25.266Z,-1.80
2022-12-13T11:46:56.271Z,-2.30
2022-12-13T11:49:45.825Z,-2.10
2022-12-13T11:52:36.586Z,-1.90
2022-12-13T11:55:17.567Z,-2.10
2022-12-13T11:58:05.028Z,-2.00
2022-12-13T12:00:56.454Z,-2.10
2022-12-13T12:03:53.477Z,-1.80
2022-12-13T12:06:29.907Z,-2.00
2022-12-13T12:09:04.724Z,-2.30
2022-12-13T12:11:57.195Z,-2.30
2022-12-13T12:14:35.997Z,-2.30
2022-12-13T12:17:06.339Z,-2.20
2022-12-13T12:19:39.667Z,-2.10
2022-12-13T12:25:22.935Z,-1.80
2022-12-13T12:28:02.109Z,-2.00
2022-12-13T12:30:57.212Z,-2.20
2022-12-13T12:33:57.337Z,-2.10
2022-12-13T12:36:41.592Z,-2.20
2022-12-13T12:39:35.416Z,-2.00
2022-12-13T12:43:13.968Z,-2.00
2022-12-13T12:45:56.811Z,-2.00
2022-12-13T12:49:03.624Z,-2.00
2022-12-13T12:57:51.512Z,-2.40
2022-12-13T13:00:21.890Z,-0.50
2022-12-13T13:03:22.113Z,-1.90
2022-12-13T13:06:02.441Z,-1.70
2022-12-13T13:08:55.633Z,-1.90
2022-12-13T13:11:25.999Z,-1.90
2022-12-13T13:14:33.253Z,-2.00
2022-12-13T13:17:21.078Z,-1.90
2022-12-13T13:20:18.118Z,-1.60
2022-12-13T13:22:53.711Z,-2.00
2022-12-13T13:25:43.974Z,-2.00
2022-12-13T13:28:18.611Z,-1.90
2022-12-13T13:31:03.602Z,-2.00
2022-12-13T13:33:52.342Z,-1.90
2022-12-13T13:39:20.347Z,-1.80
2022-12-13T13:45:00.628Z,-1.60
2022-12-13T13:47:35.656Z,-1.90
2022-12-13T13:50:24.970Z,-1.70
2022-12-13T13:53:24.785Z,-1.80
2022-12-13T13:56:20.814Z,-1.70
2022-12-13T13:59:21.570Z,-1.60
2022-12-13T14:02:19.839Z,-1.60
2022-12-13T14:05:26.907Z,-1.60
2022-12-13T14:08:20.678Z,-1.70
2022-12-13T14:11:12.419Z,-1.80
2022-12-13T14:14:22.541Z,-1.90
2022-12-13T14:17:32.431Z,-1.90
2022-12-13T14:20:41.320Z,-2.00
2022-12-13T14:28:58.525Z,-1.80
2022-12-13T14:31:34.900Z,-2.10
2022-12-13T14:34:04.316Z,-2.20
2022-12-13T14:36:35.521Z,-2.10
2022-12-13T14:39:07.053Z,-2.10
2022-12-13T14:41:56.552Z,-2.10
2022-12-13T14:44:28.489Z,-2.10
2022-12-13T14:46:59.974Z,-2.10
2022-12-13T14:49:29.485Z,-2.20
2022-12-13T14:52:01.556Z,-2.30
2022-12-13T14:54:32.720Z,-2.30
2022-12-13T14:57:04.609Z,-2.30
2022-12-13T14:59:33.404Z,-2.20
2022-12-13T15:02:04.340Z,-2.30
2022-12-13T15:04:34.921Z,-2.40
2022-12-13T15:07:14.749Z,-2.40
2022-12-13T15:09:45.003Z,-2.40
2022-12-13T15:12:24.209Z,-2.30
2022-12-13T15:15:17.481Z,-2.40
2022-12-13T15:17:44.911Z,-2.30
2022-12-13T15:20:30.660Z,-2.30
2022-12-13T15:23:04.403Z,-2.30
2022-12-13T15:25:34.668Z,-2.30
2022-12-13T15:28:03.021Z,-2.40
2022-12-13T15:30:33.470Z,-2.40
2022-12-13T15:35:48.072Z,-2.50
2022-12-13T15:38:28.010Z,-2.50
2022-12-13T15:40:56.764Z,-2.60
2022-12-13T15:43:33.144Z,-2.60
2022-12-13T15:46:00.781Z,-2.70
2022-12-13T15:48:33.933Z,-2.60
2022-12-13T15:51:29.818Z,-2.50
2022-12-13T15:54:21.480Z,-2.60
2022-12-13T15:59:40.556Z,-2.60
2022-12-13T16:02:24.716Z,-2.70
2022-12-13T16:04:52.127Z,-2.70
2022-12-13T16:07:23.901Z,-2.80
2022-12-13T16:09:53.793Z,-2.70
2022-12-13T16:12:29.206Z,-2.70
2022-12-13T16:15:28.715Z,-2.70
2022-12-13T16:18:19.192Z,-2.80
2022-12-13T16:20:54.479Z,-2.80
2022-12-13T16:23:27.357Z,-2.90
2022-12-13T16:25:55.426Z,-2.80
2022-12-13T16:28:26.251Z,-2.90
2022-12-13T16:31:02.176Z,-2.80
2022-12-13T16:33:29.333Z,-2.80
2022-12-13T16:35:57.062Z,-3.20
2022-12-13T16:38:26.736Z,-3.10
2022-12-13T16:40:56.429Z,-3.50
2022-12-13T16:43:32.755Z,-2.90
2022-12-13T16:47:11.451Z,-2.90
2022-12-13T16:48:51.567Z,-2.90
2022-12-13T16:51:19.167Z,-2.90
2022-12-13T16:53:46.883Z,-2.90
2022-12-13T16:56:17.079Z,-2.50
2022-12-13T16:58:49.554Z,-3.00
